Time;durP1;ratioP1;P1;durP2;ratioP2;P2;SDS_P1;SDS_P2;PMS_P1;PMS_P2;Temp;Humidity;BMP_temperature;BMP_pressure;BME280_temperature;BME280_humidity;BME280_pressure;Samples;Min_cycle;Max_cycle;Signal;HPM_P1;HPM_P2
2023/03/09 05:00:36;;;;;;;7.50;3.97;;;;;;;10.38;82.50;98707.09;5602001;31;212221;-53
2023/03/09 05:03:40;;;;;;;8.05;4.35;;;;;;;10.38;82.50;98707.09;5603084;31;34476;-53
2023/03/09 05:06:44;;;;;;;9.68;4.20;;;;;;;9.83;83.08;98721.94;5603508;31;33471;-53
2023/03/09 05:09:48;;;;;;;9.57;4.95;;;;;;;9.84;91.23;98723.53;5603567;31;34513;-53
2023/03/09 05:12:51;;;;;;;6.75;4.12;;;;;;;9.86;81.77;98736.56;5603779;31;33256;-53
2023/03/09 05:15:53;;;;;;;7.62;4.35;;;;;;;9.97;99.37;98726.34;5602102;31;34545;-53
2023/03/09 05:18:56;;;;;;;7.85;4.40;;;;;;;9.88;84.62;98707.63;5603386;31;33668;-53
2023/03/09 05:21:59;;;;;;;7.50;4.35;;;;;;;10.05;79.65;98722.88;5603464;31;34216;-54
2023/03/09 05:25:01;;;;;;;8.02;4.62;;;;;;;10.02;83.23;98732.31;5603536;31;33528;-53
2023/03/09 05:28:07;;;;;;;7.70;4.47;;;;;;;9.96;84.31;98735.47;5603398;31;34893;-54
2023/03/09 05:31:13;;;;;;;6.53;4.10;;;;;;;10.00;80.03;98729.19;5603284;31;33401;-53
2023/03/09 05:34:18;;;;;;;6.65;4.25;;;;;;;9.96;92.12;98736.25;5603104;31;33579;-54
2023/03/09 05:37:20;;;;;;;10.02;4.70;;;;;;;9.99;85.50;98734.84;5603463;31;33445;-54
2023/03/09 05:40:23;;;;;;;9.02;3.90;;;;;;;10.02;79.50;98726.97;5603117;31;33568;-53
2023/03/09 05:43:27;;;;;;;8.77;5.07;;;;;;;10.17;83.08;98717.66;5603262;31;33634;-53
2023/03/09 05:46:29;;;;;;;9.52;4.35;;;;;;;10.25;79.71;98732.12;5603090;31;33539;-54
2023/03/09 05:49:32;;;;;;;7.05;4.40;;;;;;;10.24;80.00;98728.69;5603033;31;34418;-53
2023/03/09 05:52:34;;;;;;;11.80;4.75;;;;;;;10.33;79.35;98723.31;5603168;31;33336;-54
2023/03/09 05:55:37;;;;;;;7.45;4.60;;;;;;;10.36;78.71;98717.31;5603031;31;33456;-53
2023/03/09 05:58:39;;;;;;;7.05;4.37;;;;;;;10.42;78.13;98716.06;5602781;31;33476;-54
2023/03/09 06:01:42;;;;;;;9.25;4.80;;;;;;;10.52;77.13;98745.19;5597856;31;33595;-54
2023/03/09 06:04:50;;;;;;;10.48;5.05;;;;;;;10.61;85.49;98739.03;5589913;31;32732;-54
2023/03/09 06:07:52;;;;;;;15.32;5.57;;;;;;;10.61;90.10;98723.72;5583554;31;34295;-54
2023/03/09 06:10:59;;;;;;;9.30;5.32;;;;;;;10.70;82.41;98721.03;5574084;31;34600;-54
2023/03/09 06:14:02;;;;;;;8.57;5.30;;;;;;;10.93;91.54;98708.94;5569594;31;34518;-54
2023/03/09 06:17:06;;;;;;;11.55;6.25;;;;;;;10.91;88.27;98724.56;5570081;32;33689;-54
2023/03/09 06:20:09;;;;;;;12.60;5.82;;;;;;;10.84;78.33;98742.25;5569218;32;33739;-53
2023/03/09 06:23:13;;;;;;;10.95;5.37;;;;;;;11.02;94.42;98744.53;5569495;31;33530;-54
2023/03/09 06:26:15;;;;;;;11.55;5.75;;;;;;;11.08;83.38;98742.44;5568353;31;33475;-54
2023/03/09 06:29:19;;;;;;;11.18;5.32;;;;;;;11.19;82.16;98735.63;5569638;31;33378;-54
2023/03/09 06:32:21;;;;;;;12.98;5.60;;;;;;;11.08;80.66;98730.94;5569496;31;32944;-54
2023/03/09 06:35:25;;;;;;;12.77;5.05;;;;;;;11.00;79.45;98740.62;5569394;31;33341;-53
2023/03/09 06:38:28;;;;;;;9.10;4.50;;;;;;;10.98;79.51;98751.66;5569544;31;34173;-54
2023/03/09 06:41:31;;;;;;;7.40;4.70;;;;;;;11.02;79.56;98746.41;5568864;31;33158;-53
2023/03/09 06:44:35;;;;;;;12.48;4.95;;;;;;;11.00;77.39;98748.66;5568502;32;34247;-54
2023/03/09 06:47:38;;;;;;;9.55;4.53;;;;;;;11.14;84.55;98733.13;5568961;32;34169;-53
2023/03/09 06:50:41;;;;;;;8.18;4.85;;;;;;;11.25;83.17;98742.34;5568670;31;33507;-54
2023/03/09 06:53:44;;;;;;;9.50;5.30;;;;;;;11.36;79.41;98750.84;5587500;31;33294;-53
2023/03/09 06:56:47;;;;;;;19.17;5.75;;;;;;;11.33;77.61;98748.81;5587578;31;33297;-53
2023/03/09 06:59:50;;;;;;;15.60;5.07;;;;;;;11.38;77.04;98740.56;5587582;31;33717;-55
2023/03/09 07:02:52;;;;;;;9.38;5.03;;;;;;;11.61;82.67;98750.97;5588489;31;33047;-54
2023/03/09 07:05:54;;;;;;;9.73;4.78;;;;;;;11.63;80.26;98752.25;5587771;31;33318;-54
2023/03/09 07:08:57;;;;;;;12.65;4.70;;;;;;;11.58;76.78;98762.38;5585910;31;33442;-54
2023/03/09 07:12:00;;;;;;;9.05;4.72;;;;;;;11.75;79.16;98757.69;5580179;31;33765;-54
2023/03/09 07:15:05;;;;;;;12.25;4.62;;;;;;;11.87;80.58;98758.87;5574006;31;33890;-53
2023/03/09 07:18:07;;;;;;;10.60;4.15;;;;;;;11.90;85.64;98768.97;5576739;31;34302;-56
2023/03/09 07:21:11;;;;;;;10.13;4.20;;;;;;;11.96;82.67;98765.75;5580269;31;33094;-53
2023/03/09 07:24:14;;;;;;;13.10;4.25;;;;;;;12.05;81.33;98754.94;5583168;31;33675;-54
2023/03/09 07:27:18;;;;;;;8.77;3.62;;;;;;;12.20;80.92;98757.00;5586082;31;34562;-54
2023/03/09 07:30:21;;;;;;;10.60;4.18;;;;;;;12.06;75.76;98764.56;5586651;31;33692;-53
2023/03/09 07:33:23;;;;;;;14.48;4.95;;;;;;;12.06;75.29;98759.22;5583504;31;33721;-54
2023/03/09 07:36:26;;;;;;;8.45;3.67;;;;;;;12.13;74.82;98769.41;5584637;31;34329;-54
2023/03/09 07:39:28;;;;;;;8.43;3.25;;;;;;;12.27;82.73;98780.66;5583602;31;33627;-53
2023/03/09 07:42:31;;;;;;;9.75;3.47;;;;;;;12.23;73.03;98783.22;5583764;31;33671;-53
2023/03/09 07:45:40;;;;;;;6.78;3.30;;;;;;;12.33;75.92;98783.94;5586405;31;34719;-54
2023/03/09 07:48:44;;;;;;;8.05;3.55;;;;;;;12.36;74.10;98783.28;5583051;31;33543;-54
2023/03/09 07:51:47;;;;;;;6.70;3.12;;;;;;;12.36;74.72;98772.53;5573069;31;33682;-54
2023/03/09 07:54:50;;;;;;;9.13;3.60;;;;;;;12.36;74.40;98761.78;5576574;31;33786;-54
2023/03/09 07:57:52;;;;;;;8.50;3.70;;;;;;;12.40;73.29;98771.53;5575029;31;33744;-54
2023/03/09 08:00:56;;;;;;;6.37;4.28;;;;;;;12.41;74.00;98772.31;5581628;31;33190;-54
2023/03/09 08:03:59;;;;;;;8.18;3.95;;;;;;;12.48;74.91;98779.84;5580021;31;34522;-55
2023/03/09 08:07:01;;;;;;;9.63;3.58;;;;;;;12.48;73.53;98771.78;5580955;31;32974;-54
2023/03/09 08:10:05;;;;;;;10.40;3.47;;;;;;;12.48;74.23;98775.22;5580295;31;34291;-55
2023/03/09 08:13:09;;;;;;;7.60;3.55;;;;;;;12.55;75.01;98762.06;5579351;31;33455;-54
2023/03/09 08:16:12;;;;;;;8.00;3.65;;;;;;;12.54;73.64;98773.13;5580721;31;33707;-55
2023/03/09 08:19:19;;;;;;;7.07;3.97;;;;;;;12.58;74.72;98780.22;5583339;31;33941;-54
2023/03/09 08:22:22;;;;;;;6.53;3.90;;;;;;;12.61;75.52;98779.53;5567672;31;33909;-54
2023/03/09 08:25:25;;;;;;;7.57;3.78;;;;;;;12.72;82.65;98782.59;5568710;31;33780;-54
2023/03/09 08:28:28;;;;;;;9.13;4.10;;;;;;;12.73;73.25;98792.22;5574753;31;33772;-54
2023/03/09 08:31:33;;;;;;;9.15;4.68;;;;;;;12.62;74.75;98812.59;5577989;31;34458;-54
2023/03/09 08:34:36;;;;;;;7.78;3.45;;;;;;;12.59;74.79;98819.41;5570731;31;33584;-54
2023/03/09 08:37:38;;;;;;;7.87;3.95;;;;;;;12.66;74.27;98830.41;5582814;31;34418;-54
2023/03/09 08:40:41;;;;;;;7.28;3.35;;;;;;;12.70;76.30;98815.19;5575658;31;34055;-54
2023/03/09 08:43:46;;;;;;;8.82;3.70;;;;;;;12.78;76.23;98810.84;5579387;31;33649;-55
2023/03/09 08:46:49;;;;;;;9.20;3.75;;;;;;;12.79;74.11;98815.09;5580944;31;33762;-55
2023/03/09 08:49:51;;;;;;;8.77;3.42;;;;;;;12.88;74.04;98806.91;5571027;31;33668;-53
2023/03/09 08:52:53;;;;;;;6.12;3.12;;;;;;;12.91;76.40;98792.81;5570407;31;32168;-54
2023/03/09 08:55:56;;;;;;;6.12;3.47;;;;;;;12.91;73.34;98774.78;5572658;31;33752;-54
2023/03/09 08:58:58;;;;;;;6.82;3.10;;;;;;;12.93;73.35;98782.50;5572350;31;33171;-53
2023/03/09 09:02:00;;;;;;;9.32;3.33;;;;;;;12.93;72.72;98779.81;5573494;31;34273;-56
2023/03/09 09:05:03;;;;;;;8.00;3.05;;;;;;;12.89;72.44;98790.47;5578745;31;33407;-55
2023/03/09 09:08:06;;;;;;;6.40;3.28;;;;;;;12.86;73.57;98779.59;5572513;31;34372;-53
2023/03/09 09:11:11;;;;;;;5.87;3.05;;;;;;;12.93;74.08;98785.22;5571872;31;33584;-55
2023/03/09 09:14:16;;;;;;;6.68;2.87;;;;;;;12.94;74.53;98784.84;5570577;31;32446;-54
2023/03/09 09:17:18;;;;;;;4.95;2.40;;;;;;;13.08;73.24;98797.22;5581213;31;33521;-54
2023/03/09 09:20:20;;;;;;;8.52;2.92;;;;;;;13.10;73.53;98801.12;5574527;31;33268;-54
2023/03/09 09:23:24;;;;;;;4.03;2.28;;;;;;;13.21;74.39;98798.81;5573343;31;33698;-53
2023/03/09 09:26:26;;;;;;;5.85;2.70;;;;;;;13.32;79.92;98807.25;5572118;31;33655;-54
2023/03/09 09:29:28;;;;;;;6.10;3.00;;;;;;;13.39;73.09;98807.47;5566995;31;33618;-54
2023/03/09 09:32:33;;;;;;;10.70;3.62;;;;;;;13.39;72.27;98813.63;5575913;31;33421;-55
2023/03/09 09:35:35;;;;;;;12.93;3.83;;;;;;;13.47;73.28;98824.59;5571254;31;33796;-54
2023/03/09 09:38:38;;;;;;;9.25;3.50;;;;;;;13.49;73.54;98833.16;5574133;31;33822;-56
2023/03/09 09:41:51;;;;;;;10.32;3.62;;;;;;;13.62;71.96;98822.03;5579603;31;34375;-53
2023/03/09 09:44:55;;;;;;;6.37;3.00;;;;;;;13.71;71.76;98816.53;5581605;31;33634;-54
2023/03/09 09:48:02;;;;;;;9.40;3.40;;;;;;;13.81;71.55;98821.44;5589425;31;34408;-54
2023/03/09 09:51:31;;;;;;;5.43;2.83;;;;;;;13.94;72.20;98826.78;5588084;31;33598;-54
2023/03/09 09:54:39;;;;;;;5.90;2.97;;;;;;;14.00;70.89;98828.91;5581254;31;33544;-54
2023/03/09 09:57:44;;;;;;;6.32;2.92;;;;;;;14.19;75.05;98814.84;5582105;31;33264;-54
2023/03/09 10:00:50;;;;;;;4.47;2.70;;;;;;;14.31;68.89;98805.94;5582512;31;33776;-54
2023/03/09 10:04:00;;;;;;;4.75;2.60;;;;;;;14.52;73.59;98789.56;5587597;31;33293;-54
2023/03/09 10:07:14;;;;;;;5.57;2.83;;;;;;;14.64;70.05;98794.13;5583027;31;34563;-54
2023/03/09 10:10:22;;;;;;;6.30;2.45;;;;;;;14.84;71.56;98817.41;5574646;31;34385;-54
2023/03/09 10:13:32;;;;;;;5.22;2.42;;;;;;;14.84;68.14;98827.41;5575469;31;33665;-54
2023/03/09 10:16:42;;;;;;;6.60;2.05;;;;;;;14.95;72.20;98831.16;5580506;31;33710;-54
2023/03/09 10:19:48;;;;;;;4.78;2.03;;;;;;;14.90;67.01;98834.09;5580352;31;34377;-54
2023/03/09 10:22:55;;;;;;;8.00;2.27;;;;;;;15.03;79.17;98820.19;5573858;31;34569;-54
2023/03/09 10:26:14;;;;;;;12.88;2.45;;;;;;;15.18;73.24;98810.53;5572695;31;33790;-55
2023/03/09 10:29:26;;;;;;;20.95;3.03;;;;;;;15.20;64.83;98821.00;5586788;31;34384;-55
2023/03/09 10:32:52;;;;;;;6.72;2.15;;;;;;;15.24;64.67;98830.72;5580000;31;34387;-54
2023/03/09 10:35:57;;;;;;;2.75;2.00;;;;;;;15.35;69.00;98824.81;5582392;31;33736;-55
2023/03/09 10:39:11;;;;;;;4.93;1.90;;;;;;;15.41;65.78;98826.09;5585441;31;34429;-54
2023/03/09 10:42:21;;;;;;;3.83;2.00;;;;;;;15.55;65.31;98833.75;5585647;31;33566;-54
2023/03/09 10:45:29;;;;;;;5.70;1.98;;;;;;;15.65;72.96;98831.28;5586084;31;34330;-54
2023/03/09 10:48:32;;;;;;;11.57;2.85;;;;;;;15.67;64.92;98830.97;5584299;31;33235;-54
2023/03/09 10:51:40;;;;;;;4.68;1.80;;;;;;;15.77;68.51;98835.06;5587448;31;33683;-54
2023/03/09 10:54:42;;;;;;;6.35;2.25;;;;;;;15.84;63.36;98837.91;5584812;31;32404;-54
2023/03/09 10:57:55;;;;;;;2.17;1.50;;;;;;;15.95;64.98;98839.69;5585160;31;33774;-55
2023/03/09 11:01:20;;;;;;;24.45;2.33;;;;;;;16.08;62.37;98837.66;5584096;31;34271;-54
2023/03/09 11:04:22;;;;;;;4.43;1.73;;;;;;;16.14;61.15;98841.66;5581374;31;33473;-54
2023/03/09 11:07:33;;;;;;;5.95;1.60;;;;;;;16.15;64.62;98832.41;5586879;31;33690;-54
2023/03/09 11:10:36;;;;;;;6.28;1.67;;;;;;;16.29;60.54;98836.53;5586374;31;33719;-55
2023/03/09 11:13:46;;;;;;;4.72;1.67;;;;;;;16.30;59.29;98816.47;5585621;31;32403;-54
2023/03/09 11:16:54;;;;;;;4.05;1.80;;;;;;;16.32;59.07;98823.06;5586669;31;33793;-54
2023/03/09 11:20:12;;;;;;;2.67;1.50;;;;;;;16.46;62.90;98825.31;5586828;31;33749;-54
2023/03/09 11:23:38;;;;;;;5.10;2.30;;;;;;;16.39;60.29;98833.25;5581738;31;33563;-55
2023/03/09 11:26:48;;;;;;;5.95;2.92;;;;;;;16.28;56.68;98838.47;5582651;31;34508;-54
2023/03/09 11:30:00;;;;;;;5.45;2.90;;;;;;;16.14;55.42;98847.06;5580783;31;33730;-53
2023/03/09 11:33:09;;;;;;;5.93;2.72;;;;;;;16.14;54.11;98848.97;5582587;31;33628;-54
2023/03/09 11:36:44;;;;;;;6.25;2.75;;;;;;;16.12;54.69;98843.13;5584197;31;34198;-54
2023/03/09 11:40:10;;;;;;;4.30;2.33;;;;;;;16.11;56.70;98847.00;5576052;31;33791;-56
2023/03/09 11:43:34;;;;;;;5.57;2.90;;;;;;;16.00;54.25;98848.69;5578604;31;34046;-54
2023/03/09 11:46:37;;;;;;;7.18;2.95;;;;;;;16.07;54.32;98870.47;5580520;31;34299;-54
2023/03/09 11:49:42;;;;;;;7.43;2.75;;;;;;;16.10;52.92;98873.25;5580379;31;34096;-54
2023/03/09 11:52:54;;;;;;;7.23;2.30;;;;;;;16.14;53.32;98879.50;5582249;31;35885;-55
2023/03/09 11:56:30;;;;;;;4.18;2.35;;;;;;;16.11;53.27;98879.44;5582404;31;33769;-54
2023/03/09 11:59:45;;;;;;;11.15;2.50;;;;;;;16.13;53.72;98885.28;5578329;31;33763;-54
2023/03/09 12:03:01;;;;;;;4.75;2.50;;;;;;;16.16;53.65;98898.88;5583583;31;33741;-55
2023/03/09 12:06:36;;;;;;;4.60;2.42;;;;;;;16.14;53.27;98887.63;5585376;31;34371;-54
2023/03/09 12:10:01;;;;;;;3.60;2.30;;;;;;;16.17;54.24;98889.63;5567661;31;32243;-54
2023/03/09 12:13:24;;;;;;;;;;;;;;;16.21;54.53;98912.09;5584912;31;33311;-53
2023/03/09 12:16:33;;;;;;;7.28;2.92;;;;;;;16.28;52.01;98908.75;5578156;31;34700;-54
2023/03/09 12:19:36;;;;;;;8.15;2.37;;;;;;;16.27;53.27;98912.59;5584031;31;33788;-54
2023/03/09 12:22:39;;;;;;;8.77;2.78;;;;;;;16.30;53.54;98933.53;5585576;31;34420;-54
2023/03/09 12:25:57;;;;;;;5.53;2.50;;;;;;;16.24;53.94;98928.75;5584558;31;33658;-54
2023/03/09 12:29:15;;;;;;;4.35;2.08;;;;;;;16.30;53.55;98928.13;5574548;31;33968;-55
2023/03/09 12:32:21;;;;;;;4.97;2.22;;;;;;;16.18;52.89;98936.34;5580036;31;33676;-54
2023/03/09 12:35:23;;;;;;;6.37;2.17;;;;;;;16.20;52.75;98934.09;5575698;31;34122;-54
2023/03/09 12:38:27;;;;;;;5.20;2.37;;;;;;;16.19;53.31;98940.63;5580842;31;33719;-55
2023/03/09 12:41:55;;;;;;;4.40;2.10;;;;;;;16.19;53.38;98940.63;5582709;31;32513;-55
2023/03/09 12:45:00;;;;;;;5.97;2.12;;;;;;;16.20;51.17;98936.78;5585547;31;33751;-56
2023/03/09 12:48:26;;;;;;;2.80;2.30;;;;;;;16.12;50.20;98941.25;5578273;31;33824;-54
2023/03/09 12:51:36;;;;;;;4.97;1.83;;;;;;;16.16;49.90;98938.62;5577824;31;34407;-54
2023/03/09 12:54:40;;;;;;;6.87;1.83;;;;;;;16.21;50.35;98943.75;5577218;31;33834;-55
2023/03/09 12:57:44;;;;;;;6.05;1.92;;;;;;;16.22;50.12;98942.63;5584043;31;34825;-55
2023/03/09 13:00:52;;;;;;;3.83;1.62;;;;;;;16.35;48.83;98943.28;5585230;31;33809;-54
2023/03/09 13:04:12;;;;;;;4.45;1.20;;;;;;;16.29;48.12;98945.50;5584012;31;33663;-56
2023/03/09 13:07:18;;;;;;;3.53;1.52;;;;;;;16.34;47.28;98947.91;5574732;31;34302;-54
2023/03/09 13:10:31;;;;;;;6.17;2.00;;;;;;;16.35;47.62;98960.28;5590297;31;33728;-54
2023/03/09 13:13:41;;;;;;;2.00;1.50;;;;;;;16.37;47.81;98959.94;5586566;31;34301;-55
2023/03/09 13:16:43;;;;;;;2.00;1.60;;;;;;;16.37;46.48;98952.62;5587201;31;33629;-54
2023/03/09 13:19:51;;;;;;;2.30;1.40;;;;;;;16.34;46.97;98958.72;5591387;31;33660;-54
2023/03/09 13:22:54;;;;;;;4.47;1.48;;;;;;;16.40;47.43;98945.72;5587112;31;34389;-54
2023/03/09 13:26:13;;;;;;;3.75;1.55;;;;;;;16.30;45.76;98967.91;5587878;31;33739;-54
2023/03/09 13:29:18;;;;;;;2.47;1.17;;;;;;;16.28;46.83;98954.72;5588081;31;33651;-54
2023/03/09 13:32:24;;;;;;;3.33;1.47;;;;;;;16.14;44.94;98966.00;5583410;31;34413;-54
2023/03/09 13:35:32;;;;;;;2.20;1.20;;;;;;;16.17;46.39;98975.34;5588637;31;34311;-54
2023/03/09 13:38:37;;;;;;;2.85;1.37;;;;;;;16.17;45.05;98968.00;5583787;31;33202;-54
2023/03/09 13:41:40;;;;;;;3.92;0.90;;;;;;;16.18;45.21;98979.59;5586336;31;33635;-54
2023/03/09 13:44:46;;;;;;;5.80;1.30;;;;;;;16.13;44.92;98980.66;5593837;31;34347;-54
2023/03/09 13:48:01;;;;;;;6.18;1.23;;;;;;;16.14;45.71;98995.75;5573599;31;33725;-54
2023/03/09 13:51:03;;;;;;;6.03;1.73;;;;;;;16.19;45.46;98986.56;5584658;31;33718;-54
2023/03/09 13:54:38;;;;;;;2.15;1.05;;;;;;;16.28;45.12;98986.41;5592680;31;33678;-54
2023/03/09 13:57:42;;;;;;;2.87;1.20;;;;;;;16.36;45.47;98993.56;5586480;31;33665;-54
2023/03/09 14:00:59;;;;;;;7.28;1.17;;;;;;;16.51;43.68;99005.47;5589465;31;33340;-54
2023/03/09 14:04:01;;;;;;;17.77;1.62;;;;;;;16.54;49.80;99004.75;5590259;31;33183;-53
2023/03/09 14:07:03;;;;;;;2.85;1.20;;;;;;;16.40;44.32;99027.63;5588794;31;33683;-53
2023/03/09 14:10:26;;;;;;;2.58;1.20;;;;;;;16.33;44.87;99011.25;5585500;31;33842;-53
2023/03/09 14:13:28;;;;;;;6.25;1.25;;;;;;;16.40;45.12;99016.03;5604718;31;33586;-53
2023/03/09 14:16:33;;;;;;;8.75;1.27;;;;;;;16.33;44.73;99026.69;5607569;31;34402;-53
2023/03/09 14:19:35;;;;;;;2.08;0.75;;;;;;;16.24;43.29;99024.19;5602867;31;34043;-55
2023/03/09 14:22:38;;;;;;;2.30;0.80;;;;;;;16.19;43.50;99024.44;5577062;31;33602;-54
2023/03/09 14:25:41;;;;;;;1.98;0.73;;;;;;;16.16;42.73;99025.16;5572014;31;34995;-54
2023/03/09 14:29:02;;;;;;;3.45;0.75;;;;;;;16.14;43.51;99016.59;5587556;31;33626;-53
2023/03/09 14:32:27;;;;;;;5.18;1.17;;;;;;;16.18;42.89;99012.06;5590166;31;33775;-53
2023/03/09 14:35:35;;;;;;;2.57;0.93;;;;;;;16.15;41.94;99034.38;5592793;31;34378;-53
2023/03/09 14:38:48;;;;;;;0.95;0.70;;;;;;;16.17;43.51;99032.91;5587834;31;34306;-54
2023/03/09 14:42:06;;;;;;;3.50;1.20;;;;;;;16.27;43.73;99028.09;5568784;32;33701;-54
2023/03/09 14:45:14;;;;;;;1.95;0.88;;;;;;;16.31;41.94;99034.38;5575332;31;34273;-54
2023/03/09 14:48:17;;;;;;;5.78;0.98;;;;;;;16.25;42.01;99039.25;5601544;31;34581;-54
2023/03/09 14:51:23;;;;;;;5.18;0.93;;;;;;;16.32;42.48;99042.13;5585936;31;33656;-53
2023/03/09 14:54:25;;;;;;;;;;;;;;;16.28;41.73;99040.47;5589046;31;33706;-53
2023/03/09 14:57:27;;;;;;;10.25;1.10;;;;;;;16.25;41.66;99036.53;5590537;31;34741;-54
2023/03/09 15:00:30;;;;;;;2.65;0.90;;;;;;;16.36;41.33;99036.81;5600381;31;33728;-54
2023/03/09 15:03:32;;;;;;;2.87;1.48;;;;;;;16.46;43.71;99030.88;5589432;31;34376;-55
2023/03/09 15:06:35;;;;;;;2.85;1.02;;;;;;;16.43;41.71;99037.75;5589920;31;34448;-54
2023/03/09 15:09:37;;;;;;;4.10;0.90;;;;;;;16.38;40.81;99029.91;5590569;31;33787;-54
2023/03/09 15:12:41;;;;;;;4.43;1.20;;;;;;;16.36;40.58;99043.00;5609027;31;33199;-54
2023/03/09 15:15:44;;;;;;;7.32;1.48;;;;;;;16.36;41.24;99047.63;5609143;31;34311;-54
2023/03/09 15:18:46;;;;;;;5.20;1.27;;;;;;;16.36;41.22;99026.78;5603707;31;33315;-55
2023/03/09 15:21:52;;;;;;;3.10;1.10;;;;;;;16.39;40.88;99031.50;5599337;31;33645;-54
2023/03/09 15:24:55;;;;;;;4.68;1.10;;;;;;;16.45;40.51;99030.06;5596747;31;33765;-54
2023/03/09 15:27:57;;;;;;;2.95;0.90;;;;;;;16.48;39.02;99036.69;5599755;31;33712;-55
2023/03/09 15:31:00;;;;;;;4.68;1.23;;;;;;;16.48;39.42;99033.22;5598004;31;34339;-54
2023/03/09 15:34:02;;;;;;;7.05;1.87;;;;;;;16.47;39.38;99035.13;5588790;31;33638;-54
2023/03/09 15:37:05;;;;;;;14.35;1.52;;;;;;;16.37;41.08;99039.16;5589989;31;33775;-53
2023/03/09 15:40:08;;;;;;;1.52;0.90;;;;;;;16.33;38.53;99054.53;5589196;31;33667;-54
2023/03/09 15:43:10;;;;;;;5.45;1.62;;;;;;;16.28;39.13;99040.47;5587887;31;34278;-54
2023/03/09 15:46:12;;;;;;;1.95;1.00;;;;;;;16.32;38.51;99047.53;5589978;31;33769;-54
2023/03/09 15:49:15;;;;;;;5.32;1.33;;;;;;;16.17;40.12;99049.13;5588993;31;34324;-54
2023/03/09 15:52:17;;;;;;;3.33;1.12;;;;;;;16.14;39.71;99076.06;5604917;31;34472;-54
2023/03/09 15:55:20;;;;;;;6.82;1.40;;;;;;;16.13;42.99;99071.81;5608621;31;33686;-54
2023/03/09 15:58:22;;;;;;;4.12;1.17;;;;;;;16.11;38.75;99077.56;5592516;31;33725;-54
2023/03/09 16:01:26;;;;;;;3.97;1.25;;;;;;;16.12;40.41;99072.94;5588753;31;34343;-55
2023/03/09 16:04:29;;;;;;;6.82;1.42;;;;;;;16.19;39.85;99083.91;5588717;31;33548;-54
2023/03/09 16:07:31;;;;;;;4.37;1.37;;;;;;;16.16;41.88;99095.44;5599104;31;34457;-54
2023/03/09 16:10:34;;;;;;;2.10;1.00;;;;;;;16.15;39.97;99094.63;5600214;31;33657;-54
2023/03/09 16:13:36;;;;;;;2.80;1.00;;;;;;;16.10;39.82;99099.53;5604166;31;33668;-54
2023/03/09 16:16:38;;;;;;;5.15;1.20;;;;;;;16.17;47.05;99105.91;5588679;31;33704;-53
2023/03/09 16:19:41;;;;;;;3.72;1.42;;;;;;;16.07;40.20;99114.53;5599399;31;33710;-54
2023/03/09 16:22:45;;;;;;;6.43;1.30;;;;;;;16.08;41.58;99112.59;5608005;31;33674;-54
2023/03/09 16:25:51;;;;;;;6.90;1.42;;;;;;;15.99;41.74;99123.56;5597575;31;33665;-54
2023/03/09 16:28:54;;;;;;;4.40;1.45;;;;;;;16.04;42.26;99133.38;5604737;31;33800;-54
2023/03/09 16:31:56;;;;;;;5.43;1.90;;;;;;;16.05;41.34;99137.63;5588606;31;33695;-55
2023/03/09 16:34:58;;;;;;;3.37;1.40;;;;;;;15.91;41.30;99152.34;5587650;31;33975;-54
2023/03/09 16:38:01;;;;;;;4.87;1.33;;;;;;;15.84;41.38;99154.06;5588471;31;33771;-54
2023/03/09 16:41:08;;;;;;;4.55;1.25;;;;;;;15.81;41.63;99152.06;5588674;31;34354;-54
2023/03/09 16:44:22;;;;;;;2.75;1.10;;;;;;;15.87;42.10;99159.56;5587488;31;33697;-54
2023/03/09 16:47:25;;;;;;;2.10;1.35;;;;;;;15.78;43.07;99167.03;5593370;31;34415;-54
2023/03/09 16:50:28;;;;;;;3.90;1.10;;;;;;;15.74;42.96;99185.84;5595877;31;33700;-54
2023/03/09 16:53:31;;;;;;;2.72;1.10;;;;;;;15.67;43.02;99188.34;5592361;31;33490;-54
2023/03/09 16:56:34;;;;;;;4.50;1.17;;;;;;;15.66;43.81;99196.75;5602641;31;34430;-54
2023/03/09 16:59:36;;;;;;;6.12;1.35;;;;;;;15.63;45.77;99203.66;5593133;31;33613;-54
2023/03/09 17:02:40;;;;;;;5.32;1.45;;;;;;;15.59;44.07;99207.38;5607539;31;34282;-54
